INFORMACIÓN METAR y TAF
METAR FOR LDDU
ADDS - METARS form results

(1927 UTC 15 December 2019)
Data provider http://aviationweather.gov/metar/data/
 
METAR text: LDDU 151900Z 09009KT CAVOK 12/08 Q1022 NOSIG
Conditions at: LDDU (DUBROVNIK-CILIPI, HR) observed 1900 UTC 15 December 2019
Temperature: 12.0°C (54°F)
Dewpoint: 8.0°C (46°F) [RH = 76%]
Pressure (altimeter): 30.18 inches Hg (1022.0 mb)
Winds: from the E (90 degrees) at 10 MPH (9 knots; 4.6 m/s)
Visibility: 6 or more miles (10+ km)
Ceiling: ceiling and visibility are OK
Clouds: unknown
Weather: no significant weather observed at this time

METAR text: LDDU 151830Z 09009KT CAVOK 11/08 Q1021 NOSIG
Conditions at: LDDU (DUBROVNIK-CILIPI, HR) observed 1830 UTC 15 December 2019
Temperature: 11.0°C (52°F)
Dewpoint: 8.0°C (46°F) [RH = 82%]
Pressure (altimeter): 30.15 inches Hg (1021.0 mb)
Winds: from the E (90 degrees) at 10 MPH (9 knots; 4.6 m/s)
Visibility: 6 or more miles (10+ km)
Ceiling: ceiling and visibility are OK
Clouds: unknown
Weather: no significant weather observed at this time

Forecast for: LDDU (DUBROVNIK-CILIPI, HR)
Text: TAF LDDU 151725Z 1518/1618 14007KT 9999 FEW020 TX17/1611Z TN10/1523Z
Forecast period: 1800 UTC 15 December 2019 to 0800 UTC 16 December 2019
Forecast type: FROM: standard forecast or significant change
Winds: from the SE (140 degrees) at 8 MPH (7 knots; 3.6 m/s)
Visibility: 6 or more miles 10+ km)
Ceiling: at least 12,000 feet AGL
Clouds: few clouds at 2000 feet AGL
Weather: no significant weather forecast for this period
Text: BECMG 1608/1610 12015KT
Forecast period: 0800 to 1800 UTC 16 December 2019
Forecast type: BECOMING: Conditions expected to become as follows by 1000 UTC 16 December 2019
Winds: from the ESE (120 degrees) at 17 MPH (15 knots; 7.7 m/s)
Visibility: 6 or more miles 10+ km)
Ceiling: at least 12,000 feet AGL
Clouds: few clouds at 2000 feet AGL
Weather: no significant weather forecast for this period
Text: PROB30
Forecast period: 0900 to 1800 UTC 16 December 2019
Forecast type: TEMPORARY: The following changes expected for less than half the time period
Visibility: missing
Ceiling: 1400 feet AGL
Clouds: broken clouds at 1400 feet AGL
Weather: no significant weather forecast for this period

 MAPA DE AEROPUERTO

 INFORMACIÓN DE PISTA
Pista 12 Longitud 10827 ft Ancho 148 ft
Elevación 519 ft Umbral desplazado 488 ft Rumbo de pista 118
Pista 30 Longitud 10827 ft Ancho 148 ft
Elevación 484 ft Umbral desplazado 0 ft Rumbo de pista 298

 FRECUANCIAS DEL AEROPUERTO
Tipo APP Nombre APP Frecuencia 123.6 MHZ
Tipo TWR Nombre TWR Frecuencia 129.5 MHZ

 RADIO AYUDAS DEL AEROPUERTO
Tipo NDB Nombre Dubrovnik Frecuencia 397 KHZ
Tipo VOR-DME Nombre Dubrovnik Frecuencia 115400 KHZ
Tipo NDB Nombre Dubrovnik Frecuencia 414 KHZ
Tipo NDB Nombre Kolocep Frecuencia 318 KHZ